Latest Weather Observations for Gove Airport

IDD60801

Issued at 4:35 pm CST Tuesday 22 July 2014 (issued every 30 minutes, with the page automatically refreshed every 10 minutes)

About weather observations | Map of weather stations | Latest weather observations for NT | Other Formats
Station Details ID: 014508 Name: GOVE AIRPORT Lat: -12.27 Lon: 136.82 Height: 51.6 m
Data from the previous 72 hours. | See also: Recent months at Gove Airport
Date/Time
CST
Temp
°C
App
Temp
°C
Dew
Point
Rel
Hum
%
Delta-T
°C
Wind Press
QNH
hPa
Press
MSL
hPa
Rain
since 9 am
mm
Dir
 
Spd
km/h
Gust
km/h
Spd
kts
Gust
kts
22/04:00pm 26.2 23.0 16.3 54 6.1 ESE 28 33 15 18 1013.6 - 0.0
22/03:30pm 26.1 23.5 16.9 57 5.7 E 26 35 14 19 1013.4 - 0.0
22/03:00pm 25.7 22.9 17.2 59 5.3 ESE 28 32 15 17 1013.5 1013.2 0.0
22/02:30pm 26.2 24.7 17.6 59 5.4 SE 22 33 12 18 1013.8 - 0.0
22/02:00pm 26.7 24.2 17.1 55 6.0 SE 26 35 14 19 1014.1 - 0.0
22/01:30pm 26.1 23.8 16.6 55 5.9 SE 24 37 13 20 1014.3 - 0.0
22/01:00pm 26.5 23.8 15.7 51 6.6 SSE 24 37 13 20 1014.8 - 0.0
22/12:30pm 27.2 24.6 15.8 49 7.0 SSE 24 35 13 19 1015.1 - 0.0
22/12:00pm 27.7 25.3 16.4 50 7.0 SE 24 39 13 21 1015.7 1015.5 0.0
22/11:30am 27.0 24.6 16.3 52 6.6 SE 24 39 13 21 1016.2 - 0.0
22/11:00am 26.0 23.4 16.0 54 6.1 SE 24 32 13 17 1016.6 - 0.0
22/10:30am 27.0 24.3 14.7 47 7.4 SE 22 33 12 18 1016.7 - 0.0
22/10:00am 25.4 22.7 16.5 58 5.5 ESE 26 37 14 20 1017.3 - 0.0
22/09:30am 25.8 23.4 16.4 56 5.8 SE 24 33 13 18 1017.3 - 0.0
22/09:00am 25.2 23.0 16.8 59 5.2 ESE 24 33 13 18 1017.4 1017.2 0.0
22/08:30am 25.3 23.5 16.9 59 5.2 ESE 22 35 12 19 1017.1 - 0.0
22/08:00am 23.3 23.3 17.3 69 3.7 ESE 13 17 7 9 1016.9 - 0.0
22/07:30am 21.3 21.9 17.7 80 2.2 SE 11 13 6 7 1016.5 - 0.0
22/07:00am 18.8 19.4 16.8 88 1.2 SE 9 13 5 7 1016.4 - 0.0
22/06:30am 18.7 19.3 16.9 89 1.1 SE 9 11 5 6 1016.2 - 0.0
22/06:00am 17.9 18.8 16.2 90 1.0 SE 6 7 3 4 1016.0 1015.8 0.0
22/05:30am 17.3 17.9 15.8 91 0.9 SE 7 7 4 4 1015.8 - 0.0
22/05:00am 17.4 18.1 15.5 89 1.1 SSE 6 7 3 4 1015.7 - 0.0
22/04:30am 18.2 19.0 15.8 86 1.4 SSE 6 7 3 4 1015.6 - 0.0
22/04:00am 18.5 18.6 15.6 83 1.7 SSE 9 9 5 5 1015.6 - 0.0
22/03:30am 19.1 19.2 15.5 79 2.1 SSE 9 11 5 6 1015.5 - 0.0
22/03:00am 19.3 18.9 15.2 77 2.4 SSE 11 13 6 7 1015.5 1015.3 0.0
22/02:30am 19.6 19.3 15.4 77 2.5 SSE 11 15 6 8 1015.6 - 0.0
22/02:00am 20.3 19.9 15.2 72 3.0 SSE 11 13 6 7 1015.7 - 0.0
22/01:30am 20.2 19.9 15.5 74 2.8 SSE 11 13 6 7 1015.8 - 0.0
22/01:00am 21.1 20.4 15.4 70 3.4 SE 13 17 7 9 1015.9 - 0.0
22/12:30am 20.6 20.7 15.4 72 3.1 SE 9 13 5 7 1016.1 - 0.0
22/12:00am 21.2 20.4 15.1 68 3.6 SE 13 17 7 9 1016.3 1016.1 0.0
 
Date/Time
CST
Temp
°C
App
Temp
°C
Dew
Point
Rel
Hum
%
Delta-T
°C
Wind Press
QNH
hPa
Press
MSL
hPa
Rain
since 9 am
mm
Dir
 
Spd
km/h
Gust
km/h
Spd
kts
Gust
kts
21/11:30pm 20.9 20.6 15.5 71 3.2 SE 11 15 6 8 1016.3 - 0.0
21/11:00pm 20.6 20.5 15.9 74 2.8 SE 11 13 6 7 1016.5 - 0.0
21/10:30pm 20.4 20.7 16.1 76 2.6 SE 9 11 5 6 1016.6 - 0.0
21/10:00pm 20.9 20.8 15.9 73 3.0 SE 11 13 6 7 1016.7 - 0.0
21/09:30pm 21.1 21.1 16.3 74 2.9 SE 11 15 6 8 1016.6 - 0.0
21/09:00pm 20.4 21.0 16.9 80 2.1 SE 9 11 5 6 1016.6 1016.4 0.0
21/08:30pm 21.2 21.8 16.9 76 2.6 SE 9 13 5 7 1016.3 - 0.0
21/08:00pm 21.8 22.1 17.1 74 2.9 SE 11 15 6 8 1016.1 - 0.0
21/07:30pm 22.9 22.5 17.2 70 3.5 ESE 15 20 8 11 1015.8 - 0.0
21/07:00pm 23.2 22.9 17.4 70 3.6 ESE 15 20 8 11 1015.6 - 0.0
21/06:30pm 23.4 22.7 17.3 68 3.8 ESE 17 20 9 11 1015.1 - 0.0
21/06:00pm 24.1 22.8 17.3 65 4.2 ESE 20 28 11 15 1014.8 1014.6 0.0
21/05:30pm 24.6 23.1 17.6 65 4.4 ESE 22 32 12 17 1014.7 - 0.0
21/05:00pm 25.4 23.3 17.2 60 5.1 ESE 24 33 13 18 1014.5 - 0.0
21/04:30pm 25.1 22.9 17.8 64 4.6 E 26 37 14 20 1014.4 - 0.0
21/04:00pm 25.9 24.5 18.0 61 5.0 ESE 22 39 12 21 1014.1 - 0.0
21/03:30pm 25.0 24.7 19.1 70 3.8 SE 19 32 10 17 1014.1 - 0.0
21/03:00pm 25.7 24.5 18.3 63 4.7 ESE 22 33 12 18 1014.1 1013.8 0.0
21/02:30pm 26.2 23.9 17.6 59 5.4 SE 26 35 14 19 1014.2 - 0.0
21/02:00pm 26.2 24.1 17.2 57 5.6 SE 24 33 13 18 1014.4 - 0.0
21/01:30pm 26.7 25.2 16.7 54 6.2 SE 20 28 11 15 1014.7 - 0.0
21/01:00pm 27.1 24.7 16.4 52 6.6 SE 24 32 13 17 1014.9 - 0.0
21/12:30pm 28.4 25.7 15.7 46 7.8 E 24 28 13 15 1015.2 - 0.0
21/12:00pm 27.8 25.8 16.5 50 7.0 SE 22 32 12 17 1015.4 1015.2 0.0
21/11:30am 27.8 24.8 14.9 45 7.8 ESE 24 33 13 18 1015.9 - 0.0
21/11:00am 26.7 24.1 16.9 55 6.1 ESE 26 33 14 18 1016.4 - 0.0
21/10:30am 27.2 24.8 17.3 54 6.2 E 26 37 14 20 1016.6 - 0.0
21/10:00am 25.6 22.9 17.6 61 5.0 ESE 28 33 15 18 1016.7 - 0.0
21/09:30am 25.7 23.5 17.9 62 4.9 ESE 26 32 14 17 1016.7 - 0.0
21/09:00am 25.4 23.3 18.1 64 4.6 E 26 35 14 19 1016.6 1016.4 0.0
21/08:30am 24.5 25.5 19.4 73 3.3 ESE 13 19 7 10 1016.5 - 0.0
21/08:00am 22.2 24.2 19.9 87 1.5 SE 9 13 5 7 1016.2 - 0.0
21/07:30am 19.1 20.3 18.3 95 0.5 SSE 9 11 5 6 1015.9 - 0.0
21/07:00am 16.8 17.5 16.1 96 0.4 SE 7 9 4 5 1015.6 - 0.0
21/06:30am 16.1 17.9 15.4 96 0.4 CALM 0 0 0 0 1015.4 - 0.0
21/06:00am 16.1 17.5 15.4 96 0.4 NNE 2 6 1 3 1015.1 1014.9 0.0
21/05:30am 16.2 18.0 15.5 96 0.4 CALM 0 0 0 0 1015.0 - 0.0
21/05:00am 16.7 18.7 16.0 96 0.4 CALM 0 0 0 0 1015.0 - 0.0
21/04:30am 17.0 19.1 16.2 95 0.5 CALM 0 0 0 0 1015.0 - 0.0
21/04:00am 17.3 18.2 16.6 96 0.4 S 7 11 4 6 1014.9 - 0.0
21/03:30am 17.4 18.1 16.2 93 0.7 S 7 9 4 5 1014.9 - 0.0
21/03:00am 18.1 19.3 16.9 93 0.7 SSE 6 9 3 5 1015.1 1014.9 0.0
21/02:30am 18.6 21.2 17.5 93 0.7 CALM 0 0 0 0 1015.3 - 0.0
21/02:00am 18.9 20.4 17.6 92 0.8 SE 6 7 3 4 1015.5 - 0.0
21/01:30am 18.8 20.1 17.5 92 0.8 SE 7 9 4 5 1015.8 - 0.0
21/01:00am 19.0 19.9 17.5 91 0.9 SE 9 9 5 5 1015.9 - 0.0
21/12:30am 18.9 20.1 17.4 91 0.9 SE 7 9 4 5 1016.1 - 0.0
21/12:00am 19.2 20.5 17.6 90 1.0 SE 7 9 4 5 1016.1 1015.9 0.0
 
Date/Time
CST
Temp
°C
App
Temp
°C
Dew
Point
Rel
Hum
%
Delta-T
°C
Wind Press
QNH
hPa
Press
MSL
hPa
Rain
since 9 am
mm
Dir
 
Spd
km/h
Gust
km/h
Spd
kts
Gust
kts
20/11:30pm 19.6 20.7 18.0 90 1.0 SE 9 9 5 5 1016.4 - 0.0
20/11:00pm 19.8 21.6 18.2 90 1.0 SE 6 7 3 4 1016.5 - 0.0
20/10:30pm 20.0 21.7 18.1 89 1.2 SE 6 6 3 3 1016.5 - 0.0
20/10:00pm 20.2 21.6 17.9 87 1.4 SE 7 9 4 5 1016.5 - 0.0
20/09:30pm 20.7 21.8 18.0 84 1.7 SE 9 9 5 5 1016.4 - 0.0
20/09:00pm 21.1 22.7 18.2 83 1.8 SE 7 9 4 5 1016.3 1016.1 0.0
20/08:30pm 22.0 23.1 18.0 78 2.5 SE 9 11 5 6 1016.0 - 0.0
20/08:00pm 22.0 23.0 17.8 77 2.6 SE 9 13 5 7 1015.7 - 0.0
20/07:30pm 22.6 23.1 17.4 72 3.2 SSE 11 15 6 8 1015.4 - 0.0
20/07:00pm 22.6 23.1 17.4 72 3.2 SSE 11 13 6 7 1015.1 - 0.0
20/06:30pm 23.0 23.4 17.2 70 3.6 SSE 11 15 6 8 1014.7 - 0.0
20/06:00pm 23.7 23.7 17.1 66 4.1 SSE 13 19 7 10 1014.4 1014.1 0.0
20/05:30pm 24.7 23.3 16.6 60 5.0 SSE 19 28 10 15 1014.4 - 0.0
20/05:00pm 25.2 23.8 16.6 59 5.3 SSE 19 32 10 17 1014.2 - 0.0
20/04:30pm 25.6 23.5 16.1 55 5.8 SE 22 28 12 15 1014.1 - 0.0
20/04:00pm 26.0 24.4 16.4 55 5.9 SSE 20 28 11 15 1013.8 - 0.0
20/03:30pm 25.9 24.1 16.1 54 6.0 SSE 20 30 11 16 1013.7 - 0.0
20/03:00pm 26.7 24.5 16.0 52 6.6 SE 22 32 12 17 1013.8 1013.5 0.0
20/02:30pm 25.8 24.1 16.2 55 5.9 SSE 20 28 11 15 1013.8 - 0.0
20/02:00pm 26.6 24.6 15.6 50 6.7 SSE 20 32 11 17 1014.1 - 0.0
20/01:30pm 26.9 24.5 16.4 52 6.5 SE 24 33 13 18 1014.5 - 0.0
20/01:00pm 26.5 24.8 17.2 56 5.8 SSE 22 32 12 17 1014.8 - 0.0
20/12:30pm 25.8 24.0 17.9 61 5.0 SE 24 30 13 16 1015.2 - 0.0
20/12:00pm 25.3 24.1 18.4 65 4.4 SSE 22 30 12 16 1015.5 1015.3 0.0
20/11:30am 25.5 23.8 18.2 64 4.6 SE 24 35 13 19 1015.9 - 0.0
20/11:00am 26.8 25.8 18.8 61 5.1 SE 22 30 12 16 1016.2 - 0.0
20/10:30am 25.5 24.5 18.8 66 4.3 SE 22 32 12 17 1016.6 - 0.0
20/10:00am 25.8 24.6 18.4 63 4.7 SE 22 32 12 17 1016.7 - 0.0
20/09:30am 25.3 24.2 18.7 67 4.2 SE 22 28 12 15 1016.5 - 0.0
20/09:00am 25.3 24.5 18.5 66 4.3 ESE 20 28 11 15 1016.4 1016.2 0.0
20/08:30am 25.0 24.8 19.4 71 3.6 SE 19 26 10 14 1016.4 - 0.0
20/08:00am 22.8 24.7 20.6 87 1.4 ESE 11 13 6 7 1016.2 - 0.0
20/07:30am 20.1 22.1 19.1 94 0.6 SE 7 9 4 5 1015.9 - 0.0
20/07:00am 19.2 20.8 18.2 94 0.6 SSE 7 7 4 4 1015.5 - 0.0
20/06:30am 19.4 20.7 18.4 94 0.6 SSE 9 11 5 6 1015.3 - 0.0
20/06:00am 18.4 19.6 17.4 94 0.6 S 7 9 4 5 1015.0 1014.8 0.0
20/05:30am 17.7 20.1 16.9 95 0.5 CALM 0 6 0 3 1014.8 - 0.0
20/05:00am 18.1 19.3 16.9 93 0.7 SSE 6 7 3 4 1014.6 - 0.0
20/04:30am 18.8 20.5 18.0 95 0.5 SSE 6 7 3 4 1014.4 - 0.0
20/04:00am 18.9 20.4 17.6 92 0.8 SSE 6 6 3 3 1014.1 - 0.0
20/03:30am 19.9 21.6 18.5 92 0.9 SSE 7 9 4 5 1014.0 - 0.0
20/03:00am 20.8 22.4 19.2 90 1.0 SSE 9 9 5 5 1013.9 1013.6 0.0
20/02:30am 21.4 23.1 19.4 88 1.3 SE 9 11 5 6 1014.2 - 0.0
20/02:00am 21.9 23.8 19.7 87 1.4 ESE 9 11 5 6 1014.5 - 0.0
20/01:30am 21.8 23.7 19.8 88 1.3 SE 9 11 5 6 1014.6 - 0.0
20/01:00am 22.1 23.9 19.6 86 1.6 SSE 9 13 5 7 1014.8 - 0.0
20/12:30am 22.5 23.9 19.5 83 1.9 SE 11 17 6 9 1015.0 - 0.0
20/12:00am 22.5 23.5 19.4 82 2.0 SSE 13 17 7 9 1015.0 1014.8 0.0
 
Date/Time
CST
Temp
°C
App
Temp
°C
Dew
Point
Rel
Hum
%
Delta-T
°C
Wind Press
QNH
hPa
Press
MSL
hPa
Rain
since 9 am
mm
Dir
 
Spd
km/h
Gust
km/h
Spd
kts
Gust
kts
19/11:30pm 22.5 23.8 19.2 81 2.1 SSE 11 15 6 8 1015.1 - 0.0
19/11:00pm 22.5 23.3 19.0 80 2.2 SSE 13 17 7 9 1015.3 - 0.0
19/10:30pm 22.6 23.4 19.0 80 2.3 SSE 13 17 7 9 1015.6 - 0.0
19/10:00pm 22.9 23.6 18.8 77 2.6 SSE 13 19 7 10 1015.8 - 0.0
19/09:30pm 22.6 23.2 18.6 78 2.5 SSE 13 19 7 10 1016.0 - 0.0
19/09:00pm 22.5 23.4 18.5 78 2.5 SSE 11 15 6 8 1015.9 1015.7 0.0
19/08:30pm 22.1 23.3 18.3 79 2.4 SSE 9 13 5 7 1015.5 - 0.0
19/08:00pm 22.4 23.0 17.7 75 2.9 SSE 11 15 6 8 1015.2 - 0.0
19/07:30pm 22.7 22.4 17.4 72 3.3 SSE 15 20 8 11 1014.7 - 0.0
19/07:00pm 23.1 22.7 17.1 69 3.7 SSE 15 20 8 11 1014.4 - 0.0
19/06:30pm 23.4 23.3 16.9 67 4.0 SSE 13 19 7 10 1014.2 - 0.0
19/06:00pm 23.5 23.0 17.0 67 4.0 SSE 15 22 8 12 1013.7 1013.4 0.0
19/05:30pm 24.2 22.9 16.7 63 4.6 SSE 19 28 10 15 1013.4 - 0.0
19/05:00pm 24.9 22.9 16.4 59 5.2 SE 22 35 12 19 1013.2 - 0.0

Other Formats:

Comma delimited format used in spreadsheet applications
http://www.bom.gov.au/fwo/IDD60801/IDD60801.94150.axf

JavaScript Object Notation format (JSON) in row-major order
http://www.bom.gov.au/fwo/IDD60801/IDD60801.94150.json